Time;durP1;ratioP1;P1;durP2;ratioP2;P2;SDS_P1;SDS_P2;PMS_P1;PMS_P2;Temp;Humidity;BMP_temperature;BMP_pressure;BME280_temperature;BME280_humidity;BME280_pressure;Samples;Min_cycle;Max_cycle;Signal;HPM_P1;HPM_P2
2022/10/17 00:01:09;;;;;;;4.57;2.97;;;15.80;99.90;;;;;;5056539;28;20412;-74
2022/10/17 00:03:36;;;;;;;6.63;3.37;;;15.80;99.90;;;;;;5056918;28;20857;-73
2022/10/17 00:06:08;;;;;;;6.90;2.70;;;15.80;99.90;;;;;;5044514;28;20486;-73
2022/10/17 00:08:35;;;;;;;8.60;3.20;;;15.80;99.90;;;;;;5074132;28;20473;-73
2022/10/17 00:11:05;;;;;;;6.10;3.20;;;15.80;99.90;;;;;;5076784;28;20762;-74
2022/10/17 00:13:31;;;;;;;5.93;3.10;;;15.90;99.90;;;;;;5076862;28;20410;-73
2022/10/17 00:15:57;;;;;;;3.70;2.50;;;15.90;99.90;;;;;;5075739;28;20461;-74
2022/10/17 00:18:23;;;;;;;8.80;3.03;;;15.80;99.90;;;;;;5076850;28;20878;-73
2022/10/17 00:20:48;;;;;;;4.47;2.30;;;15.70;99.90;;;;;;5076466;28;20182;-73
2022/10/17 00:23:14;;;;;;;5.43;2.80;;;15.70;99.90;;;;;;5058512;28;20936;-73
2022/10/17 00:25:40;;;;;;;6.83;3.10;;;15.70;99.90;;;;;;5076315;28;20183;-74
2022/10/17 00:28:08;;;;;;;6.27;3.10;;;15.70;99.90;;;;;;5058334;28;20167;-73
2022/10/17 00:30:34;;;;;;;9.10;2.67;;;15.70;99.90;;;;;;5063177;28;20639;-74
2022/10/17 00:32:59;;;;;;;5.40;3.07;;;15.70;99.90;;;;;;5056425;28;20414;-73
2022/10/17 00:35:25;;;;;;;3.80;2.80;;;15.60;99.90;;;;;;5056801;28;20164;-72
2022/10/17 00:37:50;;;;;;;6.50;3.00;;;15.70;99.90;;;;;;5075339;28;20304;-72
2022/10/17 00:40:16;;;;;;;6.77;3.10;;;15.60;99.90;;;;;;5075697;28;20661;-72
2022/10/17 00:42:42;;;;;;;6.80;2.80;;;15.60;99.90;;;;;;5075340;28;20184;-71
2022/10/17 00:45:19;;;;;;;5.93;2.37;;;15.70;99.90;;;;;;5075697;28;20170;-72
2022/10/17 00:47:50;;;;;;;3.80;2.20;;;15.70;99.90;;;;;;5075772;28;20296;-72
2022/10/17 00:50:17;;;;;;;6.53;2.87;;;15.70;99.90;;;;;;5070149;28;20424;-73
2022/10/17 00:52:44;;;;;;;6.60;3.40;;;15.60;99.90;;;;;;5055569;28;20409;-73
2022/10/17 00:55:19;;;;;;;6.43;3.13;;;15.70;99.90;;;;;;5055806;28;20429;-72
2022/10/17 00:57:45;;;;;;;10.43;3.93;;;15.70;99.90;;;;;;5055457;28;20437;-72
2022/10/17 01:00:12;;;;;;;6.33;2.83;;;15.60;99.90;;;;;;5055848;28;20466;-72
2022/10/17 01:02:38;;;;;;;9.27;3.27;;;15.60;99.90;;;;;;5072178;28;20423;-73
2022/10/17 01:05:05;;;;;;;5.83;2.97;;;15.40;99.90;;;;;;5075366;28;20411;-72
2022/10/17 01:07:31;;;;;;;3.10;2.43;;;15.50;99.90;;;;;;5060669;28;20442;-74
2022/10/17 01:09:57;;;;;;;5.43;3.23;;;15.60;99.90;;;;;;5037250;28;20949;-73
2022/10/17 01:12:37;;;;;;;4.43;2.90;;;15.60;99.90;;;;;;5055157;28;20985;-73
2022/10/17 01:15:34;;;;;;;6.60;2.77;;;15.60;99.90;;;;;;5038144;28;20515;-73
2022/10/17 01:18:12;;;;;;;5.70;2.80;;;15.60;99.90;;;;;;5054884;28;20401;-74
2022/10/17 01:21:03;;;;;;;6.60;2.90;;;15.60;99.90;;;;;;5055259;28;20400;-74
2022/10/17 01:23:47;;;;;;;5.27;2.90;;;15.70;99.90;;;;;;5037860;28;20797;-73
2022/10/17 01:26:24;;;;;;;5.23;2.90;;;15.70;99.90;;;;;;5055065;28;20416;-73
2022/10/17 01:29:26;;;;;;;11.43;3.33;;;15.70;99.90;;;;;;5055134;28;20863;-73
2022/10/17 01:32:07;;;;;;;7.00;2.53;;;15.70;99.90;;;;;;5054352;28;20561;-73
2022/10/17 01:34:56;;;;;;;4.20;2.53;;;15.50;99.90;;;;;;5054808;28;20877;-73
2022/10/17 01:37:52;;;;;;;7.17;3.40;;;15.50;99.90;;;;;;5069301;28;20432;-73
2022/10/17 01:40:31;;;;;;;5.67;2.90;;;15.40;99.90;;;;;;5040247;28;20810;-73
2022/10/17 01:43:15;;;;;;;9.80;3.60;;;15.40;99.90;;;;;;5054357;28;20512;-73
2022/10/17 01:45:50;;;;;;;4.63;2.53;;;15.30;99.90;;;;;;5036503;28;20507;-73
2022/10/17 01:48:21;;;;;;;7.60;3.27;;;15.30;99.90;;;;;;5039692;28;20429;-73
2022/10/17 01:51:11;;;;;;;9.27;3.20;;;15.30;99.90;;;;;;5074384;28;20418;-73
2022/10/17 01:53:43;;;;;;;2.60;2.40;;;15.20;99.90;;;;;;5056619;28;20834;-73
2022/10/17 01:56:11;;;;;;;4.40;2.73;;;15.30;99.90;;;;;;5056511;28;20437;-73
2022/10/17 01:58:45;;;;;;;3.43;2.20;;;15.40;99.90;;;;;;5056397;28;20459;-73
2022/10/17 02:01:11;;;;;;;5.90;2.60;;;15.50;99.90;;;;;;5070624;28;20503;-73
2022/10/17 02:03:39;;;;;;;3.40;2.60;;;15.50;99.90;;;;;;5036223;28;20773;-73
2022/10/17 02:06:05;;;;;;;5.03;2.50;;;15.60;99.90;;;;;;5053885;28;20422;-73
2022/10/17 02:08:43;;;;;;;4.37;2.90;;;15.60;99.90;;;;;;5054245;28;20417;-73
2022/10/17 02:11:19;;;;;;;7.07;2.93;;;15.50;99.90;;;;;;5054443;28;20396;-73
2022/10/17 02:14:27;;;;;;;7.43;2.80;;;15.40;99.90;;;;;;5062736;28;20897;-73
2022/10/17 02:16:57;;;;;;;8.83;3.27;;;15.30;99.90;;;;;;5065692;28;20939;-73
2022/10/17 02:19:58;;;;;;;3.20;2.87;;;15.30;99.90;;;;;;5073950;28;20951;-72
2022/10/17 02:22:42;;;;;;;4.33;3.40;;;15.20;99.90;;;;;;5050350;28;20430;-72
2022/10/17 02:25:22;;;;;;;7.10;3.23;;;15.20;99.90;;;;;;5056259;28;20505;-72
2022/10/17 02:28:04;;;;;;;6.57;3.37;;;15.20;99.90;;;;;;5073982;28;20423;-72
2022/10/17 02:30:30;;;;;;;7.97;3.10;;;15.10;99.90;;;;;;5072841;28;20517;-72
2022/10/17 02:33:00;;;;;;;13.53;3.37;;;15.20;99.90;;;;;;5073430;28;20490;-72
2022/10/17 02:35:31;;;;;;;5.63;2.50;;;15.20;99.90;;;;;;5073588;28;20212;-72
2022/10/17 02:37:59;;;;;;;3.17;2.87;;;15.20;99.90;;;;;;5055497;28;20442;-71
2022/10/17 02:40:27;;;;;;;7.13;2.90;;;15.20;99.90;;;;;;5053505;28;20539;-71
2022/10/17 02:42:54;;;;;;;8.93;3.07;;;15.20;99.90;;;;;;5069359;28;20900;-71
2022/10/17 02:45:23;;;;;;;7.23;2.80;;;15.20;99.90;;;;;;5073677;28;20413;-72
2022/10/17 02:48:02;;;;;;;8.00;3.13;;;15.20;99.90;;;;;;5073291;28;20449;-72
2022/10/17 02:50:38;;;;;;;4.17;3.00;;;15.30;99.90;;;;;;5071649;28;20385;-72
2022/10/17 02:53:11;;;;;;;6.43;2.83;;;15.30;99.90;;;;;;5053288;28;20388;-72
2022/10/17 02:55:44;;;;;;;3.43;2.80;;;15.30;99.90;;;;;;5053525;28;20483;-72
2022/10/17 02:58:17;;;;;;;6.73;3.13;;;15.30;99.90;;;;;;5057704;28;20833;-73
2022/10/17 03:00:43;;;;;;;3.40;2.03;;;15.30;99.90;;;;;;5059711;28;20471;-72
2022/10/17 03:03:25;;;;;;;4.50;2.90;;;15.30;99.90;;;;;;5053094;28;20501;-72
2022/10/17 03:05:51;;;;;;;5.20;2.50;;;15.30;99.90;;;;;;5052872;28;20411;-73
2022/10/17 03:08:18;;;;;;;4.50;2.60;;;15.30;99.90;;;;;;5052976;28;20411;-73
2022/10/17 03:10:43;;;;;;;6.93;2.90;;;15.30;99.90;;;;;;5053109;28;20402;-73
2022/10/17 03:13:09;;;;;;;6.10;2.63;;;15.30;99.90;;;;;;5053113;28;20415;-73
2022/10/17 03:15:35;;;;;;;5.30;3.03;;;15.20;99.90;;;;;;5035142;28;20172;-72
2022/10/17 03:18:00;;;;;;;3.33;2.20;;;15.10;99.90;;;;;;5034962;28;20182;-73
2022/10/17 03:20:26;;;;;;;6.67;3.10;;;15.00;99.90;;;;;;5052400;28;20209;-73
2022/10/17 03:22:51;;;;;;;3.03;2.73;;;15.00;99.90;;;;;;5053650;28;20169;-73
2022/10/17 03:25:17;;;;;;;4.20;2.10;;;14.90;99.90;;;;;;5053214;28;20177;-73
2022/10/17 03:27:42;;;;;;;4.63;2.63;;;14.90;99.90;;;;;;5053271;28;20652;-73
2022/10/17 03:30:08;;;;;;;4.33;2.67;;;14.90;99.90;;;;;;5053213;28;20168;-74
2022/10/17 03:32:34;;;;;;;4.03;2.70;;;14.80;99.90;;;;;;5072695;28;20172;-73
2022/10/17 03:35:00;;;;;;;4.37;2.00;;;14.80;99.90;;;;;;5073102;28;20407;-73
2022/10/17 03:37:25;;;;;;;5.20;3.37;;;14.80;99.90;;;;;;5058391;28;20541;-74
2022/10/17 03:39:51;;;;;;;5.43;2.63;;;14.80;99.90;;;;;;5052978;28;20705;-73
2022/10/17 03:42:17;;;;;;;4.57;3.20;;;14.80;99.90;;;;;;5045974;28;20262;-73
2022/10/17 03:44:42;;;;;;;5.30;2.47;;;14.80;99.90;;;;;;5072657;28;20204;-73
2022/10/17 03:47:08;;;;;;;8.83;2.93;;;14.80;99.90;;;;;;5062685;28;20667;-73
2022/10/17 03:49:33;;;;;;;6.50;2.87;;;14.80;99.90;;;;;;5053052;28;20521;-73
2022/10/17 03:51:59;;;;;;;3.80;2.57;;;14.80;99.90;;;;;;5059621;28;20170;-73
2022/10/17 03:54:24;;;;;;;4.60;2.70;;;14.70;99.90;;;;;;5073250;28;20243;-73
2022/10/17 03:56:50;;;;;;;4.73;2.27;;;14.80;99.90;;;;;;5066063;28;20641;-74
2022/10/17 03:59:16;;;;;;;2.60;2.40;;;14.90;99.90;;;;;;5053713;28;20587;-73
2022/10/17 04:01:41;;;;;;;5.60;2.17;;;15.00;99.90;;;;;;5052687;28;20256;-74
2022/10/17 04:04:07;;;;;;;8.17;2.63;;;15.00;99.90;;;;;;5070604;28;20173;-73
2022/10/17 04:06:33;;;;;;;12.30;3.00;;;15.00;99.90;;;;;;5072717;28;20199;-73
2022/10/17 04:09:00;;;;;;;4.60;2.97;;;15.00;99.90;;;;;;5057388;28;20823;-74
2022/10/17 04:11:25;;;;;;;4.40;2.17;;;15.10;99.90;;;;;;5052748;28;20415;-73
2022/10/17 04:13:56;;;;;;;3.43;2.20;;;15.00;99.90;;;;;;5034910;28;20425;-74
2022/10/17 04:16:22;;;;;;;6.57;2.73;;;15.00;99.90;;;;;;5052774;28;20220;-73
2022/10/17 04:18:53;;;;;;;3.03;2.17;;;15.00;99.90;;;;;;5068507;28;20471;-73
2022/10/17 04:21:18;;;;;;;4.20;2.67;;;14.90;99.90;;;;;;5072688;28;20388;-73
2022/10/17 04:23:44;;;;;;;8.43;4.30;;;14.90;99.90;;;;;;5056095;28;20905;-73
2022/10/17 04:26:10;;;;;;;8.63;2.83;;;14.90;99.90;;;;;;5052689;28;20212;-73
2022/10/17 04:28:35;;;;;;;6.47;2.70;;;14.90;99.90;;;;;;5065910;28;20254;-73
2022/10/17 04:31:08;;;;;;;5.07;2.47;;;14.90;99.90;;;;;;5051721;28;20178;-73
2022/10/17 04:33:34;;;;;;;6.87;2.80;;;14.90;99.90;;;;;;5056579;28;20153;-73
2022/10/17 04:36:02;;;;;;;7.90;3.33;;;14.70;99.90;;;;;;5038346;28;20992;-73
2022/10/17 04:38:28;;;;;;;6.47;3.20;;;14.60;99.90;;;;;;5055945;28;20169;-73
2022/10/17 04:40:57;;;;;;;5.03;3.13;;;14.60;99.90;;;;;;5065908;28;20517;-73
2022/10/17 04:43:22;;;;;;;6.10;3.07;;;14.60;99.90;;;;;;5076148;28;20412;-73
2022/10/17 04:45:48;;;;;;;7.07;2.90;;;14.60;99.90;;;;;;5075761;28;20905;-73
2022/10/17 04:48:14;;;;;;;3.83;3.40;;;14.60;99.90;;;;;;5075500;28;20550;-73
2022/10/17 04:50:39;;;;;;;3.90;2.90;;;14.70;99.90;;;;;;5076515;28;20180;-73
2022/10/17 04:53:05;;;;;;;7.97;3.23;;;14.70;99.90;;;;;;5057789;28;20173;-73
2022/10/17 04:55:30;;;;;;;10.20;3.40;;;14.60;99.90;;;;;;5075635;28;20204;-74
2022/10/17 04:57:56;;;;;;;5.20;2.70;;;14.50;99.90;;;;;;5050914;28;20197;-73
2022/10/17 05:00:21;;;;;;;8.27;3.60;;;14.40;99.90;;;;;;5055594;28;20198;-73
2022/10/17 05:02:47;;;;;;;5.13;3.03;;;14.50;99.90;;;;;;5055266;28;20188;-73
2022/10/17 05:05:12;;;;;;;3.23;2.80;;;14.50;99.90;;;;;;5055755;28;20173;-73
2022/10/17 05:07:41;;;;;;;4.63;3.03;;;14.50;99.90;;;;;;5055675;28;20231;-73
2022/10/17 05:10:07;;;;;;;6.17;3.17;;;14.60;99.90;;;;;;5055105;28;20181;-73
2022/10/17 05:12:33;;;;;;;3.13;2.80;;;14.70;99.90;;;;;;5055561;28;20411;-73
2022/10/17 05:14:58;;;;;;;3.70;3.40;;;14.80;99.90;;;;;;5055189;28;20417;-73
2022/10/17 05:17:24;;;;;;;6.27;3.50;;;14.80;99.90;;;;;;5055138;28;20191;-73
2022/10/17 05:19:49;;;;;;;5.50;3.40;;;14.90;99.90;;;;;;5055437;28;20190;-73
2022/10/17 05:22:15;;;;;;;5.50;3.43;;;14.90;99.90;;;;;;5055505;28;20676;-73
2022/10/17 05:24:40;;;;;;;7.57;3.77;;;14.90;99.90;;;;;;5065590;28;20627;-72
2022/10/17 05:27:06;;;;;;;10.03;3.60;;;14.90;99.90;;;;;;5074955;28;20259;-73
2022/10/17 05:29:33;;;;;;;10.30;3.97;;;14.90;99.90;;;;;;5074990;28;20183;-73
2022/10/17 05:31:58;;;;;;;7.87;3.73;;;14.90;99.90;;;;;;5064151;28;20680;-73
2022/10/17 05:34:24;;;;;;;5.90;3.57;;;14.90;99.90;;;;;;5055314;28;20500;-73
2022/10/17 05:36:49;;;;;;;5.67;3.30;;;14.90;99.90;;;;;;5054616;28;20195;-73
2022/10/17 05:39:18;;;;;;;5.00;3.60;;;15.00;99.90;;;;;;5054684;28;20248;-73
2022/10/17 05:41:44;;;;;;;7.27;3.43;;;15.00;99.90;;;;;;5055038;28;20173;-73
2022/10/17 05:44:10;;;;;;;4.00;3.47;;;15.10;99.90;;;;;;5054172;28;20407;-72
2022/10/17 05:46:35;;;;;;;6.50;3.07;;;15.10;99.90;;;;;;5053889;28;20829;-73
2022/10/17 05:49:01;;;;;;;9.20;3.47;;;15.00;99.90;;;;;;5054087;28;20173;-73
2022/10/17 05:51:27;;;;;;;2.93;2.60;;;15.00;99.90;;;;;;5060669;28;20180;-73
2022/10/17 05:53:52;;;;;;;5.03;3.00;;;15.00;99.90;;;;;;5069107;28;20185;-72
2022/10/17 05:56:19;;;;;;;5.40;3.70;;;15.00;99.90;;;;;;5073353;28;20271;-72
2022/10/17 05:58:45;;;;;;;5.43;3.23;;;15.00;99.90;;;;;;5073676;28;20195;-72
2022/10/17 06:01:12;;;;;;;5.83;3.70;;;15.10;99.90;;;;;;5055298;28;20912;-73
2022/10/17 06:03:37;;;;;;;3.93;3.43;;;15.10;99.90;;;;;;5073172;28;20773;-72
2022/10/17 06:06:09;;;;;;;4.07;3.20;;;15.10;99.90;;;;;;5072810;28;20439;-73
2022/10/17 06:08:34;;;;;;;5.40;3.17;;;15.20;99.90;;;;;;5060368;28;20181;-72
2022/10/17 06:11:00;;;;;;;11.27;4.23;;;15.20;99.90;;;;;;5053211;28;20781;-72
2022/10/17 06:13:26;;;;;;;6.40;3.40;;;15.20;99.90;;;;;;5035286;28;20174;-72
2022/10/17 06:15:52;;;;;;;4.47;3.40;;;15.20;99.90;;;;;;5035033;28;20176;-72
2022/10/17 06:18:17;;;;;;;6.40;2.60;;;15.10;99.90;;;;;;5052813;28;20173;-73
2022/10/17 06:20:43;;;;;;;3.80;3.40;;;15.10;99.90;;;;;;5052994;28;20173;-73
2022/10/17 06:23:08;;;;;;;3.70;3.10;;;15.10;99.90;;;;;;5052843;28;20168;-72
2022/10/17 06:25:34;;;;;;;6.97;4.03;;;15.20;99.90;;;;;;5052823;28;20641;-73
2022/10/17 06:28:00;;;;;;;6.33;3.40;;;15.20;99.90;;;;;;5035054;28;20179;-72
2022/10/17 06:30:25;;;;;;;4.77;3.50;;;15.20;99.90;;;;;;5052859;28;20178;-72
2022/10/17 06:32:51;;;;;;;5.47;3.27;;;15.20;99.90;;;;;;5049177;28;20212;-73
2022/10/17 06:35:17;;;;;;;6.93;4.63;;;15.10;99.90;;;;;;5072979;28;20177;-73
2022/10/17 06:37:43;;;;;;;3.90;3.30;;;15.00;99.90;;;;;;5072687;28;20429;-72
2022/10/17 06:40:11;;;;;;;8.23;3.57;;;15.10;99.90;;;;;;5055108;28;20541;-73
2022/10/17 06:42:37;;;;;;;9.30;5.70;;;15.10;99.90;;;;;;5053017;28;20539;-73
2022/10/17 06:45:04;;;;;;;8.23;4.17;;;15.10;99.90;;;;;;5052964;28;20404;-73
2022/10/17 06:47:29;;;;;;;4.93;3.80;;;15.10;99.90;;;;;;5030745;28;132282;-73
2022/10/17 06:49:55;;;;;;;6.03;3.77;;;15.20;99.90;;;;;;5053551;28;20404;-73
2022/10/17 06:52:20;;;;;;;5.83;3.50;;;15.20;99.90;;;;;;5053520;28;20179;-72
2022/10/17 06:54:46;;;;;;;4.70;3.40;;;15.20;99.90;;;;;;5053325;28;20184;-73
2022/10/17 06:57:11;;;;;;;5.10;3.50;;;15.30;99.90;;;;;;5053178;28;20190;-75
2022/10/17 06:59:37;;;;;;;3.77;3.37;;;15.20;99.90;;;;;;5072562;28;20212;-73
2022/10/17 07:02:04;;;;;;;7.83;4.43;;;15.30;99.90;;;;;;5073102;28;20260;-73
2022/10/17 07:04:29;;;;;;;5.87;3.57;;;15.30;99.90;;;;;;5073280;28;20632;-73
2022/10/17 07:06:55;;;;;;;4.60;3.80;;;15.30;99.90;;;;;;5073288;28;20477;-73
2022/10/17 07:09:21;;;;;;;7.03;4.10;;;15.40;99.90;;;;;;5072296;28;20191;-73
2022/10/17 07:11:47;;;;;;;4.80;3.27;;;15.50;99.90;;;;;;5073435;28;20171;-73
2022/10/17 07:14:13;;;;;;;5.20;3.67;;;15.60;99.90;;;;;;5072988;28;20405;-73
2022/10/17 07:16:38;;;;;;;9.07;3.50;;;15.70;99.90;;;;;;5073121;28;20657;-73
2022/10/17 07:19:04;;;;;;;4.03;3.40;;;15.80;99.90;;;;;;5072978;28;20276;-73
2022/10/17 07:21:30;;;;;;;3.53;2.83;;;15.90;99.90;;;;;;5072941;28;20164;-73
2022/10/17 07:23:55;;;;;;;4.57;3.40;;;16.00;99.90;;;;;;5072844;28;20169;-73
2022/10/17 07:26:21;;;;;;;3.57;3.00;;;16.10;99.90;;;;;;5073251;28;20203;-73
2022/10/17 07:28:52;;;;;;;7.17;4.20;;;16.20;99.90;;;;;;5072865;28;20177;-73
2022/10/17 07:31:19;;;;;;;5.50;3.90;;;16.30;99.90;;;;;;5072827;28;20166;-73
2022/10/17 07:33:45;;;;;;;5.37;3.13;;;16.50;99.90;;;;;;5072454;28;20408;-72
2022/10/17 07:36:12;;;;;;;9.10;3.57;;;16.50;99.90;;;;;;5073057;28;20429;-73
2022/10/17 07:38:38;;;;;;;3.50;3.20;;;16.60;99.90;;;;;;5073333;28;20415;-73
2022/10/17 07:41:06;;;;;;;4.87;3.53;;;16.80;99.90;;;;;;5072967;28;20412;-72
2022/10/17 07:43:32;;;;;;;5.10;3.50;;;16.90;99.90;;;;;;5072657;28;20410;-73
2022/10/17 07:45:59;;;;;;;4.17;3.60;;;17.00;99.90;;;;;;5071765;28;20501;-73
2022/10/17 07:48:24;;;;;;;6.27;3.33;;;17.10;99.90;;;;;;5072851;28;20820;-73
2022/10/17 07:50:50;;;;;;;5.53;3.33;;;17.20;99.90;;;;;;5072891;28;20487;-73
2022/10/17 07:53:16;;;;;;;7.87;3.43;;;17.30;99.90;;;;;;5072782;28;20190;-72
2022/10/17 07:55:45;;;;;;;3.80;2.67;;;17.40;99.90;;;;;;5072705;28;20170;-73
2022/10/17 07:58:11;;;;;;;3.37;3.10;;;17.50;99.90;;;;;;5072810;28;20506;-74
2022/10/17 08:00:37;;;;;;;3.03;2.70;;;17.70;99.90;;;;;;5054730;28;20450;-73
2022/10/17 08:03:04;;;;;;;4.27;3.10;;;17.80;99.90;;;;;;5069573;28;20803;-72
2022/10/17 08:05:29;;;;;;;4.57;3.07;;;17.90;99.90;;;;;;5034898;28;20430;-72
2022/10/17 08:07:55;;;;;;;4.40;3.17;;;18.00;99.90;;;;;;5056366;28;20850;-72
2022/10/17 08:10:26;;;;;;;6.97;2.90;;;18.10;99.90;;;;;;5021723;28;20179;-72
2022/10/17 08:13:00;;;;;;;6.00;3.67;;;18.20;99.90;;;;;;5056743;28;20159;-72
2022/10/17 08:15:26;;;;;;;3.27;2.93;;;18.40;99.90;;;;;;5056278;28;20396;-72
2022/10/17 08:17:54;;;;;;;4.17;3.70;;;18.50;99.90;;;;;;5056077;28;20435;-72
2022/10/17 08:20:20;;;;;;;5.23;3.40;;;18.60;99.90;;;;;;5056114;28;20453;-73
2022/10/17 08:22:51;;;;;;;6.57;3.20;;;18.80;99.90;;;;;;5056460;28;20475;-73
2022/10/17 08:25:17;;;;;;;4.27;3.30;;;18.80;99.90;;;;;;5056052;28;20155;-72
2022/10/17 08:27:42;;;;;;;5.27;3.00;;;19.00;99.90;;;;;;5056080;28;20436;-73
2022/10/17 08:30:08;;;;;;;4.57;3.07;;;19.00;99.90;;;;;;5056045;28;20707;-73
2022/10/17 08:32:34;;;;;;;3.50;3.03;;;19.10;99.90;;;;;;5062981;28;20268;-73
2022/10/17 08:35:00;;;;;;;6.40;3.77;;;19.20;99.90;;;;;;5075923;28;20444;-73
2022/10/17 08:37:25;;;;;;;6.03;3.20;;;19.20;99.90;;;;;;5074926;28;20200;-73
2022/10/17 08:39:51;;;;;;;6.23;3.20;;;19.30;99.90;;;;;;5075561;28;20202;-73
2022/10/17 08:42:38;;;;;;;3.60;3.20;;;19.40;99.90;;;;;;5075853;28;20166;-72
2022/10/17 08:45:21;;;;;;;6.10;4.00;;;19.10;99.90;;;;;;5067969;28;20194;-72
2022/10/17 08:47:53;;;;;;;6.00;3.40;;;19.00;99.90;;;;;;5054501;28;20448;-72
2022/10/17 08:50:44;;;;;;;9.80;4.60;;;19.20;99.90;;;;;;5055943;28;20393;-73
2022/10/17 08:53:21;;;;;;;13.93;4.57;;;19.40;99.90;;;;;;5056543;28;20389;-73
2022/10/17 08:55:49;;;;;;;8.10;4.70;;;19.60;99.90;;;;;;5055864;28;20396;-72
2022/10/17 08:58:26;;;;;;;6.67;4.40;;;19.80;99.90;;;;;;5055604;28;20413;-73
2022/10/17 09:00:55;;;;;;;10.80;4.83;;;19.70;99.90;;;;;;5055043;28;20400;-73
2022/10/17 09:03:51;;;;;;;6.73;4.10;;;19.70;99.90;;;;;;5069212;28;20432;-72
2022/10/17 09:06:38;;;;;;;14.70;4.53;;;20.00;99.90;;;;;;5075567;28;20817;-72
2022/10/17 09:09:31;;;;;;;6.20;3.73;;;20.20;99.90;;;;;;5075535;28;20442;-73
2022/10/17 09:12:17;;;;;;;10.17;4.27;;;20.30;99.90;;;;;;5075157;28;20380;-72
2022/10/17 09:15:17;;;;;;;5.13;3.20;;;20.60;99.90;;;;;;5075123;28;20396;-73
2022/10/17 09:18:04;;;;;;;8.60;4.77;;;20.80;99.90;;;;;;5073245;28;20507;-73
2022/10/17 09:20:35;;;;;;;13.03;4.37;;;20.80;99.90;;;;;;5074786;28;20436;-73
2022/10/17 09:23:16;;;;;;;6.00;4.00;;;20.80;99.90;;;;;;5075883;28;20381;-73
2022/10/17 09:25:45;;;;;;;7.30;3.70;;;20.80;99.90;;;;;;5075165;28;20391;-74
2022/10/17 09:28:19;;;;;;;7.57;4.07;;;20.80;99.90;;;;;;5074803;28;20396;-74
2022/10/17 09:30:59;;;;;;;8.63;3.97;;;20.90;99.90;;;;;;5056684;28;20440;-73
2022/10/17 09:33:29;;;;;;;11.77;3.83;;;21.00;99.90;;;;;;5058651;28;20431;-73
2022/10/17 09:35:55;;;;;;;5.97;4.10;;;21.00;99.90;;;;;;5054867;28;20839;-73
2022/10/17 09:38:28;;;;;;;6.23;3.17;;;21.10;99.90;;;;;;5054740;28;20405;-73
2022/10/17 09:40:57;;;;;;;4.60;2.63;;;21.50;99.90;;;;;;5054739;28;20477;-73
2022/10/17 09:43:24;;;;;;;6.20;3.70;;;21.70;99.90;;;;;;5054773;28;20480;-73
2022/10/17 09:46:08;;;;;;;3.20;2.17;;;21.90;99.90;;;;;;5054559;28;20393;-73
2022/10/17 09:48:45;;;;;;;5.30;3.50;;;22.20;99.90;;;;;;5054149;28;20397;-73
2022/10/17 09:51:11;;;;;;;7.10;3.63;;;22.20;99.90;;;;;;5054472;28;20374;-73
2022/10/17 09:53:41;;;;;;;5.50;3.30;;;22.10;99.90;;;;;;5036607;28;20425;-73
2022/10/17 09:56:17;;;;;;;10.30;4.40;;;22.00;99.90;;;;;;5070849;28;20424;-73
2022/10/17 09:58:48;;;;;;;7.93;3.40;;;22.00;99.90;;;;;;5074264;28;20403;-73
2022/10/17 10:01:27;;;;;;;4.37;2.80;;;22.30;99.90;;;;;;5074404;28;20438;-73
2022/10/17 10:04:18;;;;;;;3.20;2.27;;;22.50;99.90;;;;;;5073896;28;20479;-73
2022/10/17 10:07:09;;;;;;;6.10;2.97;;;22.80;99.90;;;;;;5071496;28;20531;-73
2022/10/17 10:09:36;;;;;;;3.73;2.60;;;22.60;99.90;;;;;;5074378;28;20895;-74
2022/10/17 10:12:22;;;;;;;3.70;2.50;;;22.80;99.90;;;;;;5074079;28;20404;-74
2022/10/17 10:14:48;;;;;;;3.17;2.40;;;23.10;99.90;;;;;;5074311;28;20384;-74
2022/10/17 10:17:43;;;;;;;4.13;2.80;;;23.30;99.90;;;;;;5055492;28;20485;-74
2022/10/17 10:20:28;;;;;;;2.73;2.40;;;23.40;99.90;;;;;;5072596;28;20450;-74
2022/10/17 10:23:23;;;;;;;3.00;2.50;;;23.60;99.90;;;;;;5073955;28;20396;-74
2022/10/17 10:26:29;;;;;;;3.10;2.50;;;23.70;99.90;;;;;;5060932;28;20495;-74
2022/10/17 10:29:19;;;;;;;5.23;2.33;;;23.80;99.90;;;;;;5062403;28;20412;-74
2022/10/17 10:31:45;;;;;;;2.37;1.67;;;24.00;99.90;;;;;;5073996;28;20385;-74
2022/10/17 10:34:19;;;;;;;5.47;1.90;;;24.10;99.90;;;;;;5073518;28;20535;-73
2022/10/17 10:36:46;;;;;;;2.77;2.43;;;24.20;99.90;;;;;;5073702;28;20470;-74
2022/10/17 10:39:29;;;;;;;2.30;2.10;;;24.10;99.90;;;;;;5073585;28;20523;-73
2022/10/17 10:41:55;;;;;;;3.67;2.00;;;24.00;99.90;;;;;;5073698;28;20401;-74
2022/10/17 10:44:25;;;;;;;5.43;2.27;;;24.20;99.90;;;;;;5073501;28;20413;-74
2022/10/17 10:47:17;;;;;;;3.70;2.00;;;24.30;99.90;;;;;;5054840;28;20221;-78
2022/10/17 10:49:43;;;;;;;2.50;1.70;;;24.50;99.90;;;;;;5073760;28;20404;-74
2022/10/17 10:52:18;;;;;;;3.40;1.70;;;24.50;99.90;;;;;;5073470;28;20458;-74
2022/10/17 10:54:53;;;;;;;3.57;1.87;;;25.40;99.90;;;;;;5073742;28;20387;-74
2022/10/17 10:57:20;;;;;;;3.70;1.67;;;25.90;99.90;;;;;;5073331;28;20944;-74
2022/10/17 10:59:51;;;;;;;1.90;1.80;;;26.90;99.40;;;;;;5073452;28;20458;-74
2022/10/17 11:02:26;;;;;;;2.20;2.00;;;28.40;98.10;;;;;;5072863;28;20411;-74
2022/10/17 11:05:14;;;;;;;3.50;1.93;;;28.60;97.90;;;;;;5073529;28;20922;-74
2022/10/17 11:07:57;;;;;;;4.93;1.80;;;29.40;96.40;;;;;;5073482;28;20474;-73
2022/10/17 11:10:40;;;;;;;4.20;2.70;;;30.50;94.60;;;;;;5073498;28;20467;-74
2022/10/17 11:13:12;;;;;;;4.70;1.70;;;30.50;92.80;;;;;;5073148;28;20839;-74
2022/10/17 11:15:49;;;;;;;5.03;1.93;;;31.10;91.60;;;;;;5072984;28;20409;-73
2022/10/17 11:18:27;;;;;;;6.33;2.23;;;32.50;90.80;;;;;;5072568;28;20770;-73
2022/10/17 11:20:59;;;;;;;3.80;1.63;;;33.80;86.00;;;;;;5073256;28;20897;-73
2022/10/17 11:23:33;;;;;;;3.20;1.50;;;34.40;82.20;;;;;;5073366;28;20385;-73
2022/10/17 11:26:05;;;;;;;4.13;1.60;;;34.50;79.40;;;;;;5072877;28;20416;-72
2022/10/17 11:28:31;;;;;;;4.10;2.43;;;35.40;74.20;;;;;;5073200;28;20377;-72
2022/10/17 11:31:08;;;;;;;6.33;1.90;;;36.50;70.10;;;;;;5072949;28;20411;-74
2022/10/17 11:33:45;;;;;;;3.00;1.50;;;37.00;62.70;;;;;;5041416;28;20652;-73
2022/10/17 11:36:12;;;;;;;4.13;1.90;;;37.30;63.20;;;;;;5056577;28;20431;-73
2022/10/17 11:38:47;;;;;;;4.70;1.47;;;37.00;58.50;;;;;;5062171;28;20432;-74
2022/10/17 11:41:20;;;;;;;5.40;2.10;;;37.80;56.10;;;;;;5054731;28;20414;-74
2022/10/17 11:44:00;;;;;;;4.57;2.17;;;36.80;60.30;;;;;;5057654;28;20465;-76
2022/10/17 11:46:27;;;;;;;2.20;1.67;;;37.10;57.40;;;;;;5057221;28;20468;-75
2022/10/17 11:49:04;;;;;;;2.80;2.00;;;37.40;56.30;;;;;;5056657;28;20412;-75
2022/10/17 11:51:38;;;;;;;3.70;1.80;;;36.80;54.20;;;;;;5069693;28;20933;-74
2022/10/17 11:54:37;;;;;;;1.93;1.50;;;35.60;54.70;;;;;;5077361;28;20736;-75
2022/10/17 11:57:24;;;;;;;1.83;1.43;;;35.40;54.70;;;;;;5076215;28;20448;-74
2022/10/17 12:00:06;;;;;;;3.80;2.00;;;34.80;55.10;;;;;;5077225;28;20454;-74
2022/10/17 12:02:36;;;;;;;3.50;1.80;;;34.30;55.60;;;;;;5076568;28;20455;-74
2022/10/17 12:05:17;;;;;;;3.00;1.67;;;33.30;58.20;;;;;;5073557;28;20412;-75
2022/10/17 12:07:45;;;;;;;2.47;1.57;;;34.60;58.40;;;;;;5067620;28;20964;-75
2022/10/17 12:10:21;;;;;;;6.00;1.90;;;36.00;54.90;;;;;;5076971;28;20819;-74
2022/10/17 12:12:48;;;;;;;3.07;1.80;;;36.50;54.10;;;;;;5076678;28;20465;-74
2022/10/17 12:15:22;;;;;;;3.43;1.90;;;35.80;53.20;;;;;;5058700;28;20511;-75
2022/10/17 12:17:57;;;;;;;2.60;1.73;;;36.30;54.70;;;;;;5075969;28;20420;-74
2022/10/17 12:20:22;;;;;;;2.90;1.53;;;37.40;53.70;;;;;;5076162;28;20449;-74
2022/10/17 12:23:09;;;;;;;3.67;1.97;;;37.50;51.30;;;;;;5076968;28;20408;-75
2022/10/17 12:25:38;;;;;;;2.50;1.60;;;38.40;53.40;;;;;;5065342;28;20197;-73
2022/10/17 12:28:25;;;;;;;7.20;2.17;;;37.30;49.40;;;;;;5076674;28;20416;-75
2022/10/17 12:31:04;;;;;;;2.93;1.50;;;36.60;51.50;;;;;;5076311;28;20601;-74
2022/10/17 12:33:35;;;;;;;3.87;1.80;;;36.00;52.30;;;;;;5075161;28;20426;-73
2022/10/17 12:36:27;;;;;;;2.73;1.77;;;36.30;51.90;;;;;;5058056;28;20471;-75
2022/10/17 12:39:02;;;;;;;2.40;1.30;;;36.10;51.90;;;;;;5052668;28;20456;-75
2022/10/17 12:41:40;;;;;;;3.53;2.20;;;36.20;51.40;;;;;;5076143;28;20408;-75
2022/10/17 12:44:26;;;;;;;3.90;2.20;;;36.70;50.90;;;;;;5076268;28;20407;-76
2022/10/17 12:47:04;;;;;;;8.33;2.00;;;37.50;50.70;;;;;;5065323;28;20451;-75
2022/10/17 12:49:49;;;;;;;3.80;2.00;;;37.60;49.20;;;;;;5075614;28;20478;-75
2022/10/17 12:52:21;;;;;;;2.67;1.77;;;37.40;51.30;;;;;;5075669;28;20404;-75
2022/10/17 12:55:02;;;;;;;5.63;1.57;;;37.90;49.70;;;;;;5075896;28;20742;-75
2022/10/17 12:57:37;;;;;;;2.77;1.83;;;36.60;49.70;;;;;;5057535;28;20436;-75
2022/10/17 13:00:33;;;;;;;2.80;1.40;;;37.10;50.70;;;;;;5076305;28;20392;-75
2022/10/17 13:03:21;;;;;;;4.87;2.10;;;36.90;49.50;;;;;;5075256;28;20759;-74
2022/10/17 13:05:54;;;;;;;1.60;1.43;;;37.30;51.50;;;;;;5075783;28;20781;-74
2022/10/17 13:08:31;;;;;;;2.27;1.27;;;37.80;50.20;;;;;;5075674;28;20395;-75